createdAt,value
2018-08-17T00:00:44.818Z,802.20
2018-08-17T00:01:45.040Z,802.30
2018-08-17T00:02:45.247Z,802.90
2018-08-17T00:03:45.389Z,796.60
2018-08-17T00:04:45.558Z,808.80
2018-08-17T00:05:45.804Z,811.40
2018-08-17T00:06:46.515Z,815.10
2018-08-17T00:07:46.221Z,814.90
2018-08-17T00:08:46.359Z,803.40
2018-08-17T00:09:46.554Z,805.10
2018-08-17T00:10:46.755Z,801.00
2018-08-17T00:11:46.971Z,800.60
2018-08-17T00:12:47.123Z,802.40
2018-08-17T00:13:47.255Z,810.00
2018-08-17T00:14:47.430Z,818.40
2018-08-17T00:15:47.657Z,802.10
2018-08-17T00:16:47.891Z,800.10
2018-08-17T00:17:48.028Z,788.00
2018-08-17T00:18:48.172Z,791.70
2018-08-17T00:19:48.508Z,770.30
2018-08-17T00:20:48.643Z,791.40
2018-08-17T00:21:48.838Z,798.30
2018-08-17T00:22:49.505Z,780.80
2018-08-17T00:23:49.184Z,800.20
2018-08-17T00:24:49.435Z,787.40
2018-08-17T00:25:50.510Z,791.00
2018-08-17T00:26:49.757Z,780.40
2018-08-17T00:27:49.899Z,777.40
2018-08-17T00:28:50.084Z,779.00
2018-08-17T00:29:50.322Z,795.10
2018-08-17T00:30:50.532Z,778.00
2018-08-17T00:31:50.683Z,791.10
2018-08-17T00:32:50.902Z,765.80
2018-08-17T00:33:51.124Z,776.50
2018-08-17T00:34:51.255Z,778.80
2018-08-17T00:35:51.436Z,786.80
2018-08-17T00:36:51.626Z,778.70
2018-08-17T00:37:51.863Z,782.70
2018-08-17T00:38:51.991Z,798.10
2018-08-17T00:39:52.154Z,790.60
2018-08-17T00:40:52.456Z,773.20
2018-08-17T00:41:52.529Z,778.30
2018-08-17T00:42:52.721Z,788.40
2018-08-17T00:43:52.940Z,789.50
2018-08-17T00:44:54.084Z,791.20
2018-08-17T00:45:53.236Z,769.50
2018-08-17T00:46:53.453Z,781.40
2018-08-17T00:47:53.670Z,792.20
2018-08-17T00:48:53.786Z,775.10
2018-08-17T00:49:53.978Z,778.20
2018-08-17T00:50:54.225Z,784.50
2018-08-17T00:51:54.381Z,797.50
2018-08-17T00:52:54.558Z,779.40
2018-08-17T00:53:54.781Z,775.40
2018-08-17T00:54:55.032Z,783.70
2018-08-17T00:55:55.151Z,787.50
2018-08-17T00:56:55.396Z,791.10
2018-08-17T00:57:55.604Z,782.80
2018-08-17T00:58:55.777Z,775.10
2018-08-17T00:59:56.541Z,800.30
2018-08-17T01:00:56.202Z,784.90
2018-08-17T01:01:56.376Z,789.90
2018-08-17T01:02:56.553Z,774.80
2018-08-17T01:03:56.719Z,779.00
2018-08-17T01:04:56.898Z,779.40
2018-08-17T01:05:57.065Z,783.10
2018-08-17T01:06:57.251Z,783.60
2018-08-17T01:07:57.458Z,770.30
2018-08-17T01:08:57.620Z,782.50
2018-08-17T01:09:57.787Z,781.20
2018-08-17T01:10:57.982Z,781.90
2018-08-17T01:11:58.177Z,787.00
2018-08-17T01:12:58.358Z,773.70
2018-08-17T01:13:58.557Z,780.00
2018-08-17T01:15:05.623Z,782.40
2018-08-17T01:15:58.906Z,767.50
2018-08-17T01:16:59.090Z,812.70
2018-08-17T01:17:59.260Z,785.30
2018-08-17T01:18:59.449Z,776.30
2018-08-17T01:19:59.636Z,794.00
2018-08-17T01:20:59.856Z,792.20
2018-08-17T01:21:59.999Z,787.40
2018-08-17T01:23:00.160Z,781.90
2018-08-17T01:24:00.369Z,790.80
2018-08-17T01:25:00.526Z,766.80
2018-08-17T01:26:00.735Z,791.40
2018-08-17T01:27:00.939Z,781.20
2018-08-17T01:28:01.123Z,790.30
2018-08-17T01:29:01.299Z,797.80
2018-08-17T01:30:01.446Z,795.10
2018-08-17T01:31:01.679Z,778.10
2018-08-17T01:32:01.864Z,801.00
2018-08-17T01:33:02.040Z,793.90
2018-08-17T01:34:02.265Z,796.90
2018-08-17T01:35:02.418Z,813.30
2018-08-17T01:36:02.604Z,802.40
2018-08-17T01:37:02.809Z,802.80
2018-08-17T01:38:02.972Z,795.40
2018-08-17T01:39:03.146Z,808.70
2018-08-17T01:40:03.329Z,807.20
2018-08-17T01:41:03.542Z,810.90
2018-08-17T01:42:03.725Z,792.90
2018-08-17T01:43:03.933Z,808.30
2018-08-17T01:44:04.124Z,807.40
2018-08-17T01:45:04.276Z,801.30
2018-08-17T01:46:04.465Z,797.90
2018-08-17T01:47:04.633Z,805.30
2018-08-17T01:48:04.830Z,784.30
2018-08-17T01:49:05.072Z,788.90
2018-08-17T01:50:05.205Z,802.70
2018-08-17T01:51:05.409Z,804.40
2018-08-17T01:52:05.593Z,799.40
2018-08-17T01:53:05.786Z,798.40
2018-08-17T01:54:05.917Z,785.50
2018-08-17T01:55:06.059Z,793.70
2018-08-17T01:56:06.251Z,805.40
2018-08-17T01:57:06.430Z,802.80
2018-08-17T01:58:06.590Z,793.90
2018-08-17T01:59:06.821Z,796.20
2018-08-17T02:00:06.975Z,787.40
2018-08-17T02:01:07.189Z,804.40
2018-08-17T02:02:07.326Z,798.80
2018-08-17T02:03:07.497Z,813.00
2018-08-17T02:04:07.685Z,811.00
2018-08-17T02:05:07.826Z,791.30
2018-08-17T02:06:08.070Z,805.50
2018-08-17T02:07:08.284Z,800.70
2018-08-17T02:08:08.459Z,802.60
2018-08-17T02:09:08.603Z,794.50
2018-08-17T02:10:08.824Z,817.90
2018-08-17T02:11:08.984Z,834.50
2018-08-17T02:12:09.165Z,804.80
2018-08-17T02:13:09.362Z,811.00
2018-08-17T02:14:09.523Z,810.30
2018-08-17T02:15:09.759Z,803.10
2018-08-17T02:16:09.972Z,816.40
2018-08-17T02:17:10.122Z,813.70
2018-08-17T02:18:10.291Z,806.50
2018-08-17T02:19:10.469Z,804.00
2018-08-17T02:20:10.636Z,818.20
2018-08-17T02:21:10.829Z,824.20
2018-08-17T02:22:11.014Z,818.00
2018-08-17T02:23:11.197Z,818.00
2018-08-17T02:24:11.352Z,822.00
2018-08-17T02:25:11.546Z,829.60
2018-08-17T02:26:11.773Z,826.20
2018-08-17T02:27:11.918Z,825.30
2018-08-17T02:28:12.090Z,818.40
2018-08-17T02:29:12.265Z,832.60
2018-08-17T02:30:12.464Z,826.10
2018-08-17T02:31:12.641Z,815.10
2018-08-17T02:32:12.835Z,827.60
2018-08-17T02:33:13.026Z,833.40
2018-08-17T02:34:13.210Z,826.90
2018-08-17T02:35:13.381Z,835.10
2018-08-17T02:36:13.626Z,824.40
2018-08-17T02:37:13.794Z,829.20
2018-08-17T02:38:13.965Z,827.50
2018-08-17T02:39:14.114Z,812.00
2018-08-17T02:40:14.310Z,812.60
2018-08-17T02:41:14.479Z,832.80
2018-08-17T02:42:14.668Z,829.10
2018-08-17T02:43:14.854Z,848.80
2018-08-17T02:44:15.047Z,824.60
2018-08-17T02:45:15.278Z,813.50
2018-08-17T02:46:15.414Z,808.50
2018-08-17T02:47:15.582Z,827.50
2018-08-17T02:48:15.774Z,825.60
2018-08-17T02:49:16.014Z,803.20
2018-08-17T02:50:16.174Z,792.70
2018-08-17T02:51:16.353Z,785.50
2018-08-17T02:52:16.529Z,801.90
2018-08-17T02:53:16.679Z,807.20
2018-08-17T02:54:16.839Z,808.10
2018-08-17T02:55:17.074Z,800.00
2018-08-17T02:56:17.211Z,802.20
2018-08-17T02:57:17.444Z,797.10
2018-08-17T02:58:17.569Z,819.90
2018-08-17T02:59:17.779Z,825.20
2018-08-17T03:00:17.958Z,806.60
2018-08-17T03:01:18.112Z,816.30
2018-08-17T03:02:18.297Z,808.00
2018-08-17T03:03:18.530Z,817.40
2018-08-17T03:04:18.722Z,817.70
2018-08-17T03:05:18.867Z,809.00
2018-08-17T03:06:19.039Z,803.70
2018-08-17T03:07:19.229Z,791.40
2018-08-17T03:08:19.414Z,780.10
2018-08-17T03:09:19.604Z,874.20
2018-08-17T03:10:19.793Z,843.20
2018-08-17T03:11:19.944Z,856.50
2018-08-17T03:12:20.175Z,848.00
2018-08-17T03:13:20.320Z,834.60
2018-08-17T03:14:20.503Z,843.00
2018-08-17T03:15:20.687Z,837.30
2018-08-17T03:16:20.869Z,831.00
2018-08-17T03:17:21.049Z,808.50
2018-08-17T03:18:21.303Z,811.60
2018-08-17T03:19:21.403Z,805.90
2018-08-17T03:20:21.589Z,798.30
2018-08-17T03:21:21.797Z,813.70
2018-08-17T03:22:21.989Z,820.40
2018-08-17T03:23:22.136Z,817.00
2018-08-17T03:24:22.348Z,819.90
2018-08-17T03:25:22.527Z,811.40
2018-08-17T03:26:22.692Z,808.00
2018-08-17T03:27:22.896Z,818.00
2018-08-17T03:28:23.104Z,813.60
2018-08-17T03:29:23.302Z,803.70
2018-08-17T03:30:23.435Z,798.60
2018-08-17T03:31:23.620Z,826.30
2018-08-17T03:32:23.819Z,821.40
2018-08-17T03:33:24.034Z,789.50
2018-08-17T03:34:24.198Z,798.80
2018-08-17T03:35:24.356Z,792.80
2018-08-17T03:36:24.529Z,812.00
2018-08-17T03:37:24.797Z,796.30
2018-08-17T03:40:07.603Z,785.00
2018-08-17T03:41:07.802Z,790.70
2018-08-17T03:42:07.982Z,782.60
2018-08-17T03:43:08.138Z,794.20
2018-08-17T03:44:08.352Z,798.20
2018-08-17T03:45:08.596Z,794.50
2018-08-17T03:46:08.812Z,794.80
2018-08-17T03:47:08.877Z,794.10
2018-08-17T03:48:09.095Z,792.70
2018-08-17T03:49:09.223Z,783.70
2018-08-17T03:50:09.421Z,787.50
2018-08-17T03:51:09.679Z,781.50
2018-08-17T03:52:09.790Z,785.40
2018-08-17T03:53:09.989Z,793.50
2018-08-17T03:54:10.147Z,778.70
2018-08-17T03:55:10.325Z,811.30
2018-08-17T03:56:10.498Z,790.00
2018-08-17T03:57:10.691Z,811.80
2018-08-17T03:58:10.861Z,805.70
2018-08-17T03:59:11.060Z,801.90
2018-08-17T04:00:11.251Z,801.80
2018-08-17T04:01:11.451Z,774.10
2018-08-17T04:02:11.611Z,801.70
2018-08-17T04:03:11.790Z,790.20
2018-08-17T04:04:11.968Z,792.60
2018-08-17T04:05:12.187Z,796.30
2018-08-17T04:06:12.339Z,812.60
2018-08-17T04:07:12.525Z,808.90
2018-08-17T04:08:12.702Z,801.60
2018-08-17T04:09:12.883Z,810.10
2018-08-17T04:10:13.111Z,787.00
2018-08-17T04:11:13.252Z,800.30
2018-08-17T04:12:13.475Z,800.40
2018-08-17T04:13:13.598Z,793.80
2018-08-17T04:14:13.821Z,781.30
2018-08-17T04:15:14.005Z,802.30
2018-08-17T04:16:14.174Z,804.10
2018-08-17T04:17:14.391Z,822.50
2018-08-17T04:18:14.590Z,825.90
2018-08-17T04:19:14.716Z,829.20
2018-08-17T04:20:14.885Z,826.60
2018-08-17T04:21:15.091Z,824.30
2018-08-17T04:22:15.250Z,820.60
2018-08-17T04:23:15.437Z,842.70
2018-08-17T04:24:15.648Z,843.10
2018-08-17T04:25:15.784Z,844.80
2018-08-17T04:26:15.986Z,836.20
2018-08-17T04:27:16.165Z,831.60
2018-08-17T04:28:16.349Z,846.60
2018-08-17T04:29:16.540Z,844.00
2018-08-17T04:30:16.729Z,827.00
2018-08-17T04:31:16.921Z,834.60
2018-08-17T04:32:17.154Z,847.60
2018-08-17T04:33:17.293Z,839.10
2018-08-17T04:34:17.570Z,845.50
2018-08-17T04:35:17.762Z,837.80
2018-08-17T04:36:17.864Z,834.80
2018-08-17T04:37:18.038Z,834.80
2018-08-17T04:38:18.195Z,851.00
2018-08-17T04:39:18.377Z,852.00
2018-08-17T04:40:18.667Z,865.10
2018-08-17T04:41:18.728Z,843.80
2018-08-17T04:42:18.953Z,841.50
2018-08-17T04:43:19.116Z,849.10
2018-08-17T04:44:19.323Z,856.40
2018-08-17T04:45:19.493Z,844.10
2018-08-17T04:46:19.673Z,849.10
2018-08-17T04:47:19.868Z,842.40
2018-08-17T04:48:20.054Z,854.30
2018-08-17T04:49:20.292Z,850.40
2018-08-17T04:50:20.435Z,848.30
2018-08-17T04:51:20.628Z,826.70
2018-08-17T04:52:20.803Z,836.90
2018-08-17T04:53:20.965Z,834.10
2018-08-17T04:54:21.167Z,823.40
2018-08-17T04:55:21.334Z,815.70
2018-08-17T04:56:21.536Z,820.20
2018-08-17T04:57:21.711Z,842.10
2018-08-17T04:58:21.896Z,865.10
2018-08-17T04:59:22.076Z,862.50
2018-08-17T05:00:22.264Z,860.00
2018-08-17T05:01:22.449Z,852.40
2018-08-17T05:02:22.641Z,849.90
2018-08-17T05:03:22.841Z,876.70
2018-08-17T05:04:23.012Z,891.70
2018-08-17T05:05:23.206Z,918.80
2018-08-17T05:06:23.406Z,908.90
2018-08-17T05:07:23.609Z,896.10
2018-08-17T05:08:23.775Z,894.20
2018-08-17T05:09:23.953Z,901.10
2018-08-17T05:10:24.129Z,897.00
2018-08-17T05:11:24.315Z,904.50
2018-08-17T05:12:24.591Z,900.40
2018-08-17T05:13:24.666Z,899.20
2018-08-17T05:14:24.877Z,897.20
2018-08-17T05:15:25.035Z,891.30
2018-08-17T05:16:25.214Z,891.10
2018-08-17T05:17:25.390Z,885.60
2018-08-17T05:18:25.593Z,871.10
2018-08-17T05:19:25.763Z,869.90
2018-08-17T05:20:25.979Z,864.00
2018-08-17T05:21:26.167Z,850.50
2018-08-17T05:22:26.315Z,848.30
2018-08-17T05:23:26.601Z,842.30
2018-08-17T05:24:26.723Z,840.30
2018-08-17T05:25:26.888Z,840.50
2018-08-17T05:26:27.099Z,834.20
2018-08-17T05:27:27.259Z,826.50
2018-08-17T05:28:27.455Z,826.10
2018-08-17T05:29:27.647Z,814.70
2018-08-17T05:30:27.810Z,820.90
2018-08-17T05:31:27.995Z,802.60
2018-08-17T05:32:28.189Z,816.10
2018-08-17T05:33:28.401Z,799.90
2018-08-17T05:34:28.585Z,783.60
2018-08-17T05:35:28.754Z,794.40
2018-08-17T05:36:28.992Z,779.40
2018-08-17T05:37:29.126Z,781.90
2018-08-17T05:38:29.296Z,789.20
2018-08-17T05:39:29.472Z,782.00
2018-08-17T05:40:29.654Z,774.10
2018-08-17T05:41:29.815Z,777.30
2018-08-17T05:42:29.997Z,784.70
2018-08-17T05:43:30.180Z,771.60
2018-08-17T05:44:30.367Z,771.00
2018-08-17T05:45:30.594Z,771.20
2018-08-17T05:46:30.731Z,779.40
2018-08-17T05:47:30.919Z,784.00
2018-08-17T05:48:31.124Z,784.30
2018-08-17T05:49:31.281Z,795.90
2018-08-17T05:50:31.489Z,792.20
2018-08-17T05:51:31.689Z,805.90
2018-08-17T05:52:31.832Z,797.00
2018-08-17T05:53:32.016Z,826.50
2018-08-17T05:54:32.206Z,814.40
2018-08-17T05:55:32.393Z,796.40
2018-08-17T05:56:32.607Z,802.50
2018-08-17T05:57:32.762Z,819.60
2018-08-17T05:58:32.990Z,847.00
2018-08-17T05:59:33.156Z,861.00
2018-08-17T06:00:33.360Z,873.50
2018-08-17T06:01:33.542Z,899.00
2018-08-17T06:02:33.724Z,924.30
2018-08-17T06:03:33.914Z,916.10
2018-08-17T06:04:34.148Z,937.30
2018-08-17T06:05:34.295Z,999.90
2018-08-17T06:06:34.453Z,999.90
2018-08-17T06:07:34.678Z,999.90
2018-08-17T06:08:34.840Z,918.00
2018-08-17T06:09:35.049Z,900.90
2018-08-17T06:10:35.220Z,916.40
2018-08-17T06:11:35.447Z,999.90
2018-08-17T06:12:35.592Z,990.70
2018-08-17T06:13:35.827Z,999.90
2018-08-17T06:14:35.992Z,999.90
2018-08-17T06:15:36.226Z,999.90
2018-08-17T06:16:36.429Z,999.90
2018-08-17T06:17:36.538Z,999.90
2018-08-17T06:18:36.739Z,999.90
2018-08-17T06:19:36.955Z,999.90
2018-08-17T06:20:37.126Z,999.90
2018-08-17T06:21:37.312Z,999.90
2018-08-17T06:22:37.523Z,999.90
2018-08-17T06:23:37.719Z,999.90
2018-08-17T06:24:37.900Z,999.90
2018-08-17T06:25:38.124Z,999.90
2018-08-17T06:26:38.269Z,999.90
2018-08-17T06:27:38.514Z,999.90
2018-08-17T06:28:38.629Z,999.90
2018-08-17T06:29:38.835Z,999.90
2018-08-17T06:30:39.002Z,999.90
2018-08-17T06:31:39.255Z,999.90
2018-08-17T06:32:39.409Z,999.90
2018-08-17T06:33:39.690Z,999.90
2018-08-17T06:34:39.754Z,999.90
2018-08-17T06:35:39.966Z,999.90
2018-08-17T06:36:40.199Z,999.90
2018-08-17T06:37:40.416Z,999.90
2018-08-17T06:38:40.562Z,999.90
2018-08-17T06:39:40.752Z,999.90
2018-08-17T06:40:40.934Z,999.90
2018-08-17T06:41:41.126Z,999.90
2018-08-17T06:42:41.365Z,999.90
2018-08-17T06:43:41.531Z,999.90
2018-08-17T06:44:41.718Z,999.90
2018-08-17T06:45:41.919Z,999.90
2018-08-17T06:46:45.129Z,999.90
2018-08-17T06:47:42.274Z,999.90
2018-08-17T06:48:42.467Z,999.90
2018-08-17T06:49:42.666Z,999.90
2018-08-17T06:50:42.912Z,999.90
2018-08-17T06:51:43.040Z,999.90
2018-08-17T06:52:43.243Z,999.90
2018-08-17T06:53:43.421Z,999.90
2018-08-17T06:54:43.655Z,999.90
2018-08-17T06:55:43.794Z,999.90
2018-08-17T06:56:43.991Z,999.90
2018-08-17T06:57:44.862Z,999.90
2018-08-17T06:58:46.769Z,999.90
2018-08-17T06:59:44.614Z,999.90
2018-08-17T07:00:44.809Z,999.90
2018-08-17T07:01:44.999Z,999.90
2018-08-17T07:02:45.224Z,999.90
2018-08-17T07:03:45.383Z,999.90
2018-08-17T07:04:46.547Z,999.90
2018-08-17T07:05:45.821Z,999.90
2018-08-17T07:06:46.009Z,999.90
2018-08-17T07:07:46.214Z,999.90
2018-08-17T07:08:46.567Z,999.90
2018-08-17T07:09:46.615Z,999.90
2018-08-17T07:10:46.825Z,999.90
2018-08-17T07:11:46.964Z,999.90
2018-08-17T07:12:47.197Z,999.90
2018-08-17T07:13:47.359Z,999.90
2018-08-17T07:14:47.564Z,999.90
2018-08-17T07:15:47.763Z,999.90
2018-08-17T07:16:47.998Z,999.90
2018-08-17T07:17:48.153Z,999.90
2018-08-17T07:18:48.351Z,999.90
2018-08-17T07:19:48.530Z,999.90
2018-08-17T07:20:48.728Z,999.90
2018-08-17T07:21:48.931Z,999.90
2018-08-17T07:22:49.131Z,999.90
2018-08-17T07:23:49.307Z,999.90
2018-08-17T07:24:49.526Z,999.90
2018-08-17T07:25:49.733Z,999.90
2018-08-17T07:26:50.551Z,999.90
2018-08-17T07:27:50.304Z,999.90
2018-08-17T07:28:50.368Z,999.90
2018-08-17T07:29:50.577Z,999.90
2018-08-17T07:30:50.760Z,999.90
2018-08-17T07:31:50.944Z,999.90
2018-08-17T07:32:51.160Z,999.90
2018-08-17T07:33:51.345Z,999.90
2018-08-17T07:34:51.513Z,999.90
2018-08-17T07:35:51.745Z,999.90
2018-08-17T07:36:51.923Z,999.90
2018-08-17T07:37:52.145Z,999.90
2018-08-17T07:38:52.316Z,999.90
2018-08-17T07:39:52.522Z,999.90
2018-08-17T07:40:52.705Z,999.90
2018-08-17T07:41:52.871Z,999.90
2018-08-17T07:42:53.075Z,999.90
2018-08-17T07:43:53.267Z,999.90
2018-08-17T07:44:53.452Z,999.90
2018-08-17T07:45:53.647Z,999.90
2018-08-17T07:46:53.849Z,999.90
2018-08-17T07:47:54.157Z,999.90
2018-08-17T07:48:54.294Z,999.90
2018-08-17T07:49:54.430Z,999.90
2018-08-17T07:50:54.668Z,999.90
2018-08-17T07:51:54.918Z,999.90
2018-08-17T07:52:55.094Z,999.90
2018-08-17T07:53:55.271Z,999.90
2018-08-17T07:54:55.482Z,999.90
2018-08-17T07:55:55.650Z,999.90
2018-08-17T07:56:55.841Z,999.90
2018-08-17T07:57:56.046Z,999.90
2018-08-17T07:58:56.252Z,999.90
2018-08-17T07:59:56.441Z,999.90
2018-08-17T08:00:56.626Z,999.90
2018-08-17T08:01:56.939Z,999.90
2018-08-17T08:02:57.025Z,999.90
2018-08-17T08:03:57.201Z,999.90
2018-08-17T08:04:57.384Z,999.90
2018-08-17T08:05:57.564Z,999.90
2018-08-17T08:06:58.575Z,999.90
2018-08-17T08:07:57.946Z,999.90
2018-08-17T08:08:58.115Z,999.90
2018-08-17T08:09:58.314Z,999.90
2018-08-17T08:10:58.516Z,999.90
2018-08-17T08:11:58.693Z,999.90
2018-08-17T08:12:58.897Z,999.90
2018-08-17T08:13:59.066Z,999.90
2018-08-17T08:14:59.301Z,999.90
2018-08-17T08:15:59.517Z,999.90
2018-08-17T08:16:59.658Z,999.90
2018-08-17T08:17:59.846Z,999.90
2018-08-17T08:19:00.038Z,999.90
2018-08-17T08:20:00.273Z,999.90
2018-08-17T08:21:00.445Z,999.90
2018-08-17T08:22:00.649Z,999.90
2018-08-17T08:23:00.801Z,999.90
2018-08-17T08:24:01.067Z,999.90
2018-08-17T08:25:01.220Z,999.90
2018-08-17T08:26:01.400Z,999.90
2018-08-17T08:27:01.569Z,999.90
2018-08-17T08:28:01.763Z,999.90
2018-08-17T08:29:01.932Z,999.90
2018-08-17T08:30:02.126Z,999.90
2018-08-17T08:31:02.327Z,999.90
2018-08-17T08:32:02.522Z,999.90
2018-08-17T08:34:45.457Z,999.90
2018-08-17T08:35:45.661Z,999.90
2018-08-17T08:36:45.866Z,999.90
2018-08-17T08:37:46.075Z,999.90
2018-08-17T08:38:46.252Z,999.90
2018-08-17T08:39:46.477Z,999.90
2018-08-17T08:40:46.641Z,999.90
2018-08-17T08:41:46.941Z,999.90
2018-08-17T08:42:47.068Z,999.90
2018-08-17T08:43:47.260Z,999.90
2018-08-17T08:44:47.445Z,999.90
2018-08-17T08:45:47.658Z,999.90
2018-08-17T08:46:47.899Z,999.90
2018-08-17T08:47:48.027Z,999.90
2018-08-17T08:48:48.227Z,999.90
2018-08-17T08:49:48.496Z,999.90
2018-08-17T08:50:48.619Z,999.90
2018-08-17T08:51:48.843Z,999.90
2018-08-17T08:52:49.053Z,999.90
2018-08-17T08:53:49.297Z,999.90
2018-08-17T08:54:49.632Z,999.90
2018-08-17T08:55:49.652Z,999.90
2018-08-17T08:56:49.953Z,999.90
2018-08-17T08:57:50.091Z,999.90
2018-08-17T08:58:50.300Z,999.90
2018-08-17T08:59:50.448Z,999.90
2018-08-17T09:00:50.703Z,999.90
2018-08-17T09:01:50.947Z,999.90
2018-08-17T09:02:51.165Z,999.90
2018-08-17T09:03:51.254Z,999.90
2018-08-17T09:04:51.462Z,999.90
2018-08-17T09:05:51.712Z,999.90
2018-08-17T09:06:51.841Z,999.90
2018-08-17T09:07:52.075Z,999.90
2018-08-17T09:08:52.357Z,999.90
2018-08-17T09:09:52.525Z,999.90
2018-08-17T09:10:52.723Z,999.90
2018-08-17T09:11:52.923Z,999.90
2018-08-17T09:12:53.083Z,999.90
2018-08-17T09:13:53.361Z,999.90
2018-08-17T09:14:53.480Z,999.90
2018-08-17T09:15:53.665Z,999.90
2018-08-17T09:16:53.872Z,999.90
2018-08-17T09:17:54.145Z,999.90
2018-08-17T09:18:54.238Z,999.90
2018-08-17T09:19:54.438Z,999.90
2018-08-17T09:20:54.679Z,999.90
2018-08-17T09:21:54.807Z,999.90
2018-08-17T09:22:55.065Z,999.90
2018-08-17T09:23:55.230Z,999.90
2018-08-17T09:24:55.376Z,999.90
2018-08-17T09:25:56.697Z,999.90
2018-08-17T09:26:55.745Z,999.90
2018-08-17T09:27:56.116Z,999.90
2018-08-17T09:28:56.153Z,999.90
2018-08-17T09:29:56.453Z,999.90
2018-08-17T09:30:56.618Z,999.90
2018-08-17T09:31:56.810Z,999.90
2018-08-17T09:32:57.857Z,999.90
2018-08-17T09:33:57.293Z,999.90
2018-08-17T09:34:57.377Z,999.90
2018-08-17T09:35:57.602Z,999.90
2018-08-17T09:36:57.823Z,999.90
2018-08-17T09:37:58.036Z,999.90
2018-08-17T09:38:58.188Z,999.90
2018-08-17T09:39:58.407Z,999.90
2018-08-17T09:40:58.614Z,999.90
2018-08-17T09:41:58.816Z,999.90
2018-08-17T09:42:58.996Z,999.90
2018-08-17T09:43:59.142Z,999.90
2018-08-17T09:44:59.384Z,999.90
2018-08-17T09:45:59.525Z,999.90
2018-08-17T09:46:59.863Z,999.90
2018-08-17T09:47:59.877Z,999.90
2018-08-17T09:49:00.111Z,999.90
2018-08-17T09:50:00.270Z,999.90
2018-08-17T09:51:00.440Z,999.90
2018-08-17T09:52:00.682Z,999.90
2018-08-17T09:53:00.823Z,999.90
2018-08-17T09:54:01.044Z,999.90
2018-08-17T09:55:01.194Z,999.90
2018-08-17T09:56:01.407Z,999.90
2018-08-17T09:57:01.627Z,999.90
2018-08-17T09:58:01.771Z,999.90
2018-08-17T09:59:01.992Z,999.90
2018-08-17T10:00:02.201Z,999.90
2018-08-17T10:01:02.419Z,999.90
2018-08-17T10:02:03.450Z,999.90
2018-08-17T10:03:02.755Z,999.90
2018-08-17T10:04:02.982Z,999.90
2018-08-17T10:05:03.923Z,999.90
2018-08-17T10:06:03.318Z,999.90
2018-08-17T10:07:03.583Z,999.90
2018-08-17T10:08:03.676Z,999.90
2018-08-17T10:09:03.923Z,999.90
2018-08-17T10:10:04.085Z,999.90
2018-08-17T10:11:04.244Z,999.90
2018-08-17T10:12:04.471Z,999.90
2018-08-17T10:13:04.660Z,999.90
2018-08-17T10:14:04.835Z,999.90
2018-08-17T10:15:05.124Z,999.90
2018-08-17T10:16:05.213Z,999.90
2018-08-17T10:17:05.455Z,999.90
2018-08-17T10:18:05.660Z,999.90
2018-08-17T10:19:05.978Z,999.90
2018-08-17T10:20:06.979Z,999.90
2018-08-17T10:21:07.006Z,999.90
2018-08-17T10:22:06.759Z,999.90
2018-08-17T10:23:06.682Z,999.90
2018-08-17T10:24:07.051Z,999.90
2018-08-17T10:25:07.180Z,999.90
2018-08-17T10:26:07.219Z,999.90
2018-08-17T10:27:07.409Z,999.90
2018-08-17T10:28:07.606Z,999.90
2018-08-17T10:29:08.653Z,999.90
2018-08-17T10:30:08.036Z,999.90
2018-08-17T10:31:08.233Z,999.90
2018-08-17T10:32:08.440Z,999.90
2018-08-17T10:33:08.622Z,999.90
2018-08-17T10:34:08.971Z,999.90
2018-08-17T10:35:09.161Z,999.90
2018-08-17T10:36:09.310Z,999.90
2018-08-17T10:37:09.414Z,999.90
2018-08-17T10:38:09.610Z,999.90
2018-08-17T10:39:09.880Z,999.90
2018-08-17T10:40:09.989Z,999.90
2018-08-17T10:41:10.213Z,999.90
2018-08-17T10:42:10.372Z,999.90
2018-08-17T10:43:10.549Z,999.90
2018-08-17T10:44:10.718Z,999.90
2018-08-17T10:45:10.937Z,999.90
2018-08-17T10:46:11.112Z,999.90
2018-08-17T10:47:11.327Z,999.90
2018-08-17T10:48:11.563Z,999.90
2018-08-17T10:49:11.829Z,999.90
2018-08-17T10:50:11.925Z,999.90
2018-08-17T10:51:12.116Z,999.90
2018-08-17T10:52:12.329Z,999.90
2018-08-17T10:53:12.491Z,999.90
2018-08-17T10:54:12.701Z,999.90
2018-08-17T10:55:12.876Z,999.90
2018-08-17T10:56:13.068Z,999.90
2018-08-17T10:57:13.315Z,999.90
2018-08-17T10:58:14.486Z,999.90
2018-08-17T10:59:13.876Z,999.90
2018-08-17T11:00:13.910Z,999.90
2018-08-17T11:01:14.193Z,999.90
2018-08-17T11:02:14.397Z,999.90
2018-08-17T11:03:14.906Z,999.90
2018-08-17T11:05:14.889Z,999.90
2018-08-17T11:06:15.093Z,999.90
2018-08-17T11:07:15.255Z,999.90
2018-08-17T11:08:16.598Z,999.90
2018-08-17T11:09:15.582Z,999.90
2018-08-17T11:10:15.774Z,999.90
2018-08-17T11:11:15.961Z,999.90
2018-08-17T11:12:16.219Z,999.90
2018-08-17T11:13:16.411Z,999.90
2018-08-17T11:14:16.570Z,999.90
2018-08-17T11:15:16.741Z,999.90
2018-08-17T11:16:16.909Z,999.90
2018-08-17T11:17:17.245Z,999.90
2018-08-17T11:18:18.301Z,999.90
2018-08-17T11:19:17.769Z,999.90
2018-08-17T11:20:17.709Z,999.90
2018-08-17T11:21:17.832Z,999.90
2018-08-17T11:22:18.023Z,999.90
2018-08-17T11:23:18.233Z,999.90
2018-08-17T11:24:18.446Z,999.90
2018-08-17T11:25:18.625Z,999.90
2018-08-17T11:26:19.010Z,999.90
2018-08-17T11:27:19.023Z,999.90
2018-08-17T11:28:19.325Z,999.90
2018-08-17T11:29:19.553Z,999.90
2018-08-17T11:30:19.668Z,999.90
2018-08-17T11:31:19.933Z,999.90
2018-08-17T11:32:20.109Z,999.90
2018-08-17T11:33:20.231Z,999.90
2018-08-17T11:34:20.477Z,999.90
2018-08-17T11:35:20.613Z,999.90
2018-08-17T11:36:20.822Z,999.90
2018-08-17T11:37:21.137Z,999.90
2018-08-17T11:38:21.274Z,999.90
2018-08-17T11:39:21.589Z,999.90
2018-08-17T11:40:21.743Z,999.90
2018-08-17T11:41:21.940Z,999.90
2018-08-17T11:42:22.255Z,999.90
2018-08-17T11:43:22.914Z,999.90
2018-08-17T11:44:23.429Z,999.90
2018-08-17T11:45:22.931Z,999.90
2018-08-17T11:46:23.914Z,999.90
2018-08-17T11:47:23.979Z,999.90
2018-08-17T11:48:24.066Z,999.90
2018-08-17T11:49:23.430Z,999.90
2018-08-17T11:50:23.643Z,999.90
2018-08-17T11:51:23.897Z,999.90
2018-08-17T11:52:24.061Z,999.90
2018-08-17T11:53:24.264Z,999.90
2018-08-17T11:54:24.473Z,999.90
2018-08-17T11:55:24.981Z,999.90
2018-08-17T11:56:24.833Z,999.90
2018-08-17T11:57:25.928Z,999.90
2018-08-17T11:58:25.220Z,999.90
2018-08-17T11:59:25.401Z,999.90
2018-08-17T12:00:25.614Z,999.90
2018-08-17T12:01:25.821Z,999.90
2018-08-17T12:02:25.957Z,999.90
2018-08-17T12:03:26.172Z,999.90
2018-08-17T12:04:26.534Z,999.90
2018-08-17T12:05:26.665Z,999.90
2018-08-17T12:06:26.754Z,999.90
2018-08-17T12:07:27.081Z,999.90
2018-08-17T12:08:27.190Z,999.90
2018-08-17T12:09:27.497Z,999.90
2018-08-17T12:10:27.592Z,999.90
2018-08-17T12:11:27.791Z,999.90
2018-08-17T12:12:29.131Z,999.90
2018-08-17T12:13:28.172Z,999.90
2018-08-17T12:14:28.922Z,999.90
2018-08-17T12:15:28.632Z,999.90
2018-08-17T12:16:29.475Z,999.90
2018-08-17T12:17:28.956Z,999.90
2018-08-17T12:18:31.105Z,999.90
2018-08-17T12:19:29.374Z,999.90
2018-08-17T12:20:30.565Z,999.90
2018-08-17T12:21:29.826Z,999.90
2018-08-17T12:22:29.959Z,999.90
2018-08-17T12:23:31.171Z,999.90
2018-08-17T12:24:30.365Z,999.90
2018-08-17T12:25:30.464Z,999.90
2018-08-17T12:26:31.487Z,999.90
2018-08-17T12:27:31.000Z,999.90
2018-08-17T12:28:31.050Z,999.90
2018-08-17T12:29:31.329Z,999.90
2018-08-17T12:30:31.505Z,999.90
2018-08-17T12:31:31.727Z,999.90
2018-08-17T12:33:32.119Z,999.90
2018-08-17T12:34:32.369Z,999.90
2018-08-17T12:35:32.582Z,999.90
2018-08-17T12:36:32.687Z,999.90